Theodore Francis Green State Airport
KPVD : now visible

Airfield :











YOU CAN JOIN US ON...

 
LOGIN :

Register | Disclaimer

   EN    FR    IT 

 









Legend :    VFR   Marginal VFR   IFR   Intensive IFR   Very Intensive IFR
Visi :
Ceiling :
>= 8 km
>= 3000ft
5 to 8 km
1000 to 3000 ft
1500m to 5 km
500 to 1000 ft
800 to 1500m
200 to 500 ft
< 800m
< 200 ft
Symbols :   Thunderstorms  Fog  Heavy snow  Heavy precipitations  Wind > 20 kt







- Airport Elevation : 55 ft
- IATA code : PVD


KPVD - Theodore Francis Green State

CURRENT METAR :
  • 170751Z AUTO 34006KT 10SM CLR 13/08 A3007 RMK AO2 SLP183 T01280078

EXPIRED METARs :
  • 170651Z AUTO 27003KT 10SM CLR 12/09 A3008 RMK AO2 SLP186 T01170094
  • 170551Z AUTO 34005KT 10SM CLR 13/09 A3008 RMK AO2 SLP186 T01330089 10194 20128 50003

TAF KPVD
Valid from the 17 at 06:00 until the 18 at 06:00 UTC


170532Z 1706/1806 33005KT P6SM SKC
FM171300 36007KT P6SM SKC
FM171700 02008KT P6SM FEW250
FM172000 04009KT P6SM SCT050
FM172300 06008KT P6SM FEW250
FM180300 05005KT P6SM FEW100
No reported NOTAMs for that airfield.



MET'MAP, your aeronautical weather chart ! - Copyright ORBIFLY December 2007 - Disclaimer

ORBIFLY MET'MAP TEAM :

Programming & Development : Alexandra Zaïnal
Concept & Development : Baudouin d'Aumeries
Co-Development & Prog : Marc-Olivier Méhu
Technical & hardware support : Manuel Goepfert

Contact : metmap@orbifly.com




SOURCES & CREDITS :

   NOAA       Earth
Advisory